createdAt,value
2023-05-02T00:00:45.387Z,11.00
2023-05-02T00:03:14.290Z,11.00
2023-05-02T00:05:42.941Z,11.00
2023-05-02T00:08:11.330Z,11.00
2023-05-02T00:10:39.497Z,11.00
2023-05-02T00:13:09.080Z,11.00
2023-05-02T00:15:37.215Z,10.90
2023-05-02T00:18:05.545Z,10.90
2023-05-02T00:20:33.651Z,10.90
2023-05-02T00:23:01.795Z,10.90
2023-05-02T00:25:30.210Z,11.00
2023-05-02T00:27:58.437Z,11.00
2023-05-02T00:30:27.943Z,11.00
2023-05-02T00:32:56.115Z,10.90
2023-05-02T00:35:24.351Z,10.90
2023-05-02T00:37:52.458Z,10.80
2023-05-02T00:40:20.753Z,10.80
2023-05-02T00:42:48.947Z,10.80
2023-05-02T00:45:17.193Z,10.80
2023-05-02T00:47:46.797Z,10.80
2023-05-02T00:50:14.927Z,10.70
2023-05-02T00:52:43.186Z,10.70
2023-05-02T00:55:11.529Z,10.70
2023-05-02T00:57:40.312Z,10.70
2023-05-02T01:00:10.766Z,10.70
2023-05-02T01:02:49.764Z,10.70
2023-05-02T01:05:22.334Z,10.70
2023-05-02T01:08:09.163Z,10.70
2023-05-02T01:10:49.286Z,10.70
2023-05-02T01:13:23.333Z,10.70
2023-05-02T01:15:53.034Z,10.70
2023-05-02T01:18:25.922Z,10.70
2023-05-02T01:20:58.879Z,10.60
2023-05-02T01:23:33.859Z,10.60
2023-05-02T01:26:18.069Z,10.60
2023-05-02T01:28:59.727Z,10.60
2023-05-02T01:31:30.210Z,10.60
2023-05-02T01:34:01.382Z,10.60
2023-05-02T01:36:31.661Z,10.60
2023-05-02T01:39:01.879Z,10.60
2023-05-02T01:41:33.498Z,10.60
2023-05-02T01:44:04.569Z,10.60
2023-05-02T01:46:35.800Z,10.60
2023-05-02T01:49:06.953Z,10.60
2023-05-02T01:51:38.264Z,10.60
2023-05-02T01:54:09.633Z,10.60
2023-05-02T01:56:40.333Z,10.60
2023-05-02T01:59:12.585Z,10.60
2023-05-02T02:01:43.691Z,10.60
2023-05-02T02:04:15.119Z,10.60
2023-05-02T02:06:48.242Z,10.60
2023-05-02T02:09:16.664Z,10.60
2023-05-02T02:11:48.649Z,10.60
2023-05-02T02:14:21.221Z,10.60
2023-05-02T02:16:52.270Z,10.60
2023-05-02T02:19:22.025Z,10.60
2023-05-02T02:21:51.971Z,10.60
2023-05-02T02:24:22.945Z,10.60
2023-05-02T02:26:52.034Z,10.60
2023-05-02T02:29:21.520Z,10.50
2023-05-02T02:31:49.623Z,10.50
2023-05-02T02:34:17.814Z,10.40
2023-05-02T02:36:49.833Z,10.40
2023-05-02T02:39:32.365Z,10.30
2023-05-02T02:42:11.123Z,10.30
2023-05-02T02:44:51.755Z,10.20
2023-05-02T02:47:26.959Z,10.10
2023-05-02T02:50:11.531Z,10.10
2023-05-02T02:52:51.463Z,10.10
2023-05-02T02:55:31.950Z,10.20
2023-05-02T02:58:05.245Z,10.20
2023-05-02T03:00:36.093Z,10.20
2023-05-02T03:03:04.656Z,10.20
2023-05-02T03:05:34.723Z,10.10
2023-05-02T03:08:02.959Z,10.10
2023-05-02T03:10:31.101Z,10.10
2023-05-02T03:12:59.453Z,10.00
2023-05-02T03:16:06.771Z,9.90
2023-05-02T03:18:35.174Z,9.90
2023-05-02T03:21:03.268Z,9.80
2023-05-02T03:23:31.455Z,9.80
2023-05-02T03:25:59.718Z,9.70
2023-05-02T03:28:27.819Z,9.70
2023-05-02T03:30:57.326Z,9.70
2023-05-02T03:33:25.593Z,9.70
2023-05-02T03:35:53.712Z,9.70
2023-05-02T03:38:22.349Z,9.70
2023-05-02T03:40:50.518Z,9.80
2023-05-02T03:43:18.622Z,9.80
2023-05-02T03:45:48.139Z,9.80
2023-05-02T03:48:18.405Z,9.80
2023-05-02T03:50:46.604Z,9.80
2023-05-02T03:53:16.186Z,9.80
2023-05-02T03:55:44.695Z,9.80
2023-05-02T03:58:13.377Z,9.80
2023-05-02T04:00:41.518Z,9.80
2023-05-02T04:03:10.159Z,9.80
2023-05-02T04:05:39.717Z,9.80
2023-05-02T04:08:07.904Z,9.80
2023-05-02T04:10:36.165Z,9.80
2023-05-02T04:13:04.807Z,9.90
2023-05-02T04:15:33.058Z,9.90
2023-05-02T04:18:01.647Z,9.90
2023-05-02T04:20:30.709Z,9.90
2023-05-02T04:23:00.245Z,10.00
2023-05-02T04:25:29.334Z,9.90
2023-05-02T04:27:57.996Z,9.90
2023-05-02T04:30:26.552Z,9.90
2023-05-02T04:32:54.955Z,10.00
2023-05-02T04:35:23.177Z,9.90
2023-05-02T04:37:51.305Z,10.00
2023-05-02T04:40:21.128Z,10.10
2023-05-02T04:42:49.269Z,10.10
2023-05-02T04:45:17.392Z,10.10
2023-05-02T04:47:45.795Z,10.10
2023-05-02T04:50:14.000Z,10.10
2023-05-02T04:52:42.117Z,10.10
2023-05-02T04:55:10.662Z,10.10
2023-05-02T04:57:40.807Z,10.10
2023-05-02T05:00:10.221Z,10.10
2023-05-02T05:02:39.090Z,10.10
2023-05-02T05:05:07.762Z,10.10
2023-05-02T05:07:35.928Z,10.20
2023-05-02T05:10:04.050Z,10.20
2023-05-02T05:12:32.245Z,10.10
2023-05-02T05:15:01.741Z,10.10
2023-05-02T05:17:29.921Z,10.10
2023-05-02T05:19:58.675Z,10.10
2023-05-02T05:22:26.961Z,10.10
2023-05-02T05:24:55.154Z,10.10
2023-05-02T05:27:23.497Z,10.10
2023-05-02T05:29:51.620Z,10.10
2023-05-02T05:32:22.070Z,10.10
2023-05-02T05:34:53.989Z,10.10
2023-05-02T05:37:22.653Z,10.00
2023-05-02T05:39:50.759Z,10.00
2023-05-02T05:42:18.946Z,10.00
2023-05-02T05:44:47.105Z,10.00
2023-05-02T05:47:22.780Z,10.00
2023-05-02T05:49:54.431Z,10.10
2023-05-02T05:52:22.657Z,10.10
2023-05-02T05:54:50.755Z,10.20
2023-05-02T05:57:18.899Z,10.30
2023-05-02T05:59:47.204Z,10.30
2023-05-02T06:02:15.521Z,10.30
2023-05-02T06:04:46.141Z,10.40
2023-05-02T06:07:14.594Z,10.30
2023-05-02T06:09:42.792Z,10.30
2023-05-02T06:12:10.939Z,10.40
2023-05-02T06:14:39.102Z,10.50
2023-05-02T06:17:07.199Z,10.50
2023-05-02T06:19:35.289Z,10.50
2023-05-02T06:22:05.134Z,10.60
2023-05-02T06:24:33.227Z,10.60
2023-05-02T06:27:01.309Z,10.60
2023-05-02T06:29:29.436Z,10.60
2023-05-02T06:31:58.064Z,10.60
2023-05-02T06:34:26.179Z,10.60
2023-05-02T06:36:56.618Z,10.60
2023-05-02T06:39:26.276Z,10.60
2023-05-02T06:41:58.231Z,10.70
2023-05-02T06:44:26.625Z,10.70
2023-05-02T06:46:55.730Z,10.60
2023-05-02T06:49:23.978Z,10.60
2023-05-02T06:51:52.158Z,10.60
2023-05-02T06:54:21.876Z,10.60
2023-05-02T06:56:51.410Z,10.60
2023-05-02T06:59:19.719Z,10.70
2023-05-02T07:01:47.930Z,10.70
2023-05-02T07:04:16.149Z,10.80
2023-05-02T07:06:44.633Z,10.80
2023-05-02T07:09:12.816Z,10.90
2023-05-02T07:11:41.014Z,11.00
2023-05-02T07:14:10.487Z,11.20
2023-05-02T07:16:38.675Z,11.10
2023-05-02T07:19:07.620Z,11.00
2023-05-02T07:21:35.768Z,11.10
2023-05-02T07:24:04.004Z,11.00
2023-05-02T07:26:32.187Z,11.00
2023-05-02T07:29:00.319Z,11.10
2023-05-02T07:31:29.917Z,11.10
2023-05-02T07:33:58.063Z,11.10
2023-05-02T07:36:26.224Z,11.00
2023-05-02T07:38:57.410Z,11.00
2023-05-02T07:41:25.572Z,11.10
2023-05-02T07:43:53.654Z,11.00
2023-05-02T07:46:22.162Z,11.10
2023-05-02T07:48:54.150Z,11.10
2023-05-02T07:51:22.709Z,11.30
2023-05-02T07:53:53.795Z,11.50
2023-05-02T07:56:22.158Z,11.70
2023-05-02T07:58:51.630Z,11.90
2023-05-02T08:01:20.281Z,12.00
2023-05-02T08:03:49.926Z,12.10
2023-05-02T08:06:19.962Z,12.20
2023-05-02T08:08:48.280Z,12.30
2023-05-02T08:11:16.416Z,12.30
2023-05-02T08:13:44.532Z,12.20
2023-05-02T08:16:12.893Z,12.00
2023-05-02T08:18:43.193Z,12.10
2023-05-02T08:21:12.168Z,12.40
2023-05-02T08:23:43.112Z,12.50
2023-05-02T08:26:11.271Z,12.60
2023-05-02T08:28:39.411Z,12.70
2023-05-02T08:31:07.674Z,12.80
2023-05-02T08:33:35.881Z,12.60
2023-05-02T08:36:12.176Z,12.30
2023-05-02T08:38:42.271Z,12.10
2023-05-02T08:41:14.027Z,12.40
2023-05-02T08:43:43.196Z,12.80
2023-05-02T08:46:12.595Z,13.10
2023-05-02T08:48:42.512Z,13.40
2023-05-02T08:51:12.344Z,13.40
2023-05-02T08:53:43.007Z,13.10
2023-05-02T08:56:12.683Z,13.10
2023-05-02T08:58:42.725Z,13.40
2023-05-02T09:01:16.248Z,13.50
2023-05-02T09:03:46.174Z,13.50
2023-05-02T09:06:16.462Z,13.70
2023-05-02T09:08:48.879Z,13.80
2023-05-02T09:11:18.188Z,13.80
2023-05-02T09:13:47.422Z,14.10
2023-05-02T09:16:17.521Z,14.10
2023-05-02T09:18:47.463Z,13.60
2023-05-02T09:21:20.697Z,13.10
2023-05-02T09:23:53.260Z,13.20
2023-05-02T09:26:22.484Z,13.30
2023-05-02T09:28:51.811Z,13.30
2023-05-02T09:31:37.479Z,13.30
2023-05-02T09:34:12.285Z,13.60
2023-05-02T09:36:45.228Z,14.00
2023-05-02T09:39:16.078Z,14.00
2023-05-02T09:41:45.345Z,14.00
2023-05-02T09:44:15.454Z,13.40
2023-05-02T09:46:46.030Z,13.40
2023-05-02T09:49:14.980Z,13.60
2023-05-02T09:51:44.141Z,14.20
2023-05-02T09:54:12.408Z,14.40
2023-05-02T09:56:57.899Z,14.30
2023-05-02T09:59:26.262Z,14.40
2023-05-02T10:01:58.488Z,14.80
2023-05-02T10:04:27.996Z,14.60
2023-05-02T10:06:57.394Z,14.30
2023-05-02T10:09:29.948Z,14.30
2023-05-02T10:12:05.021Z,14.20
2023-05-02T10:14:36.479Z,14.10
2023-05-02T10:17:12.983Z,14.20
2023-05-02T10:19:52.989Z,14.60
2023-05-02T10:22:21.932Z,14.20
2023-05-02T10:24:50.615Z,14.10
2023-05-02T10:27:21.009Z,14.20
2023-05-02T10:29:50.019Z,14.60
2023-05-02T10:32:20.174Z,14.40
2023-05-02T10:34:51.516Z,14.20
2023-05-02T10:37:20.955Z,14.20
2023-05-02T10:39:49.276Z,14.40
2023-05-02T10:42:20.843Z,14.60
2023-05-02T10:44:50.523Z,14.80
2023-05-02T10:47:22.581Z,15.00
2023-05-02T10:49:55.228Z,15.10
2023-05-02T10:52:31.924Z,15.00
2023-05-02T10:55:16.117Z,14.80
2023-05-02T10:58:27.067Z,14.90
2023-05-02T11:01:37.032Z,14.50
2023-05-02T11:04:07.266Z,14.60
2023-05-02T11:06:39.748Z,14.50
2023-05-02T11:09:35.774Z,14.80
2023-05-02T11:12:05.875Z,15.40
2023-05-02T11:14:50.840Z,15.60
2023-05-02T11:17:21.128Z,15.80
2023-05-02T11:20:26.496Z,16.00
2023-05-02T11:22:55.969Z,15.90
2023-05-02T11:25:35.608Z,15.90
2023-05-02T11:28:04.591Z,15.80
2023-05-02T11:30:48.586Z,15.70
2023-05-02T11:33:21.533Z,15.60
2023-05-02T11:35:50.038Z,15.40
2023-05-02T11:38:21.312Z,15.00
2023-05-02T11:41:18.275Z,15.10
2023-05-02T11:43:46.440Z,15.40
2023-05-02T11:46:14.898Z,15.60
2023-05-02T11:48:44.636Z,15.80
2023-05-02T11:51:12.814Z,15.90
2023-05-02T11:53:43.397Z,16.00
2023-05-02T11:56:11.960Z,15.80
2023-05-02T11:58:40.414Z,15.60
2023-05-02T12:01:15.476Z,15.40
2023-05-02T12:03:45.666Z,15.60
2023-05-02T12:06:16.302Z,15.70
2023-05-02T12:08:45.685Z,16.10
2023-05-02T12:11:15.803Z,16.40
2023-05-02T12:13:48.809Z,16.20
2023-05-02T12:16:17.994Z,16.00
2023-05-02T12:18:49.174Z,15.80
2023-05-02T12:21:18.140Z,15.40
2023-05-02T12:23:46.682Z,15.30
2023-05-02T12:26:19.374Z,15.30
2023-05-02T12:28:51.617Z,16.00
2023-05-02T12:31:20.841Z,16.40
2023-05-02T12:33:52.400Z,16.50
2023-05-02T12:36:20.939Z,16.20
2023-05-02T12:38:54.885Z,16.20
2023-05-02T12:41:33.396Z,16.10
2023-05-02T12:44:01.827Z,16.40
2023-05-02T12:46:31.422Z,16.10
2023-05-02T12:49:09.747Z,15.80
2023-05-02T12:51:38.607Z,15.60
2023-05-02T12:54:07.575Z,15.70
2023-05-02T12:56:41.002Z,15.70
2023-05-02T12:59:09.568Z,16.00
2023-05-02T13:01:37.835Z,16.50
2023-05-02T13:04:07.712Z,16.20
2023-05-02T13:06:38.169Z,15.90
2023-05-02T13:09:06.494Z,16.10
2023-05-02T13:11:34.599Z,16.50
2023-05-02T13:14:05.171Z,16.40
2023-05-02T13:16:36.642Z,17.00
2023-05-02T13:19:05.326Z,17.00
2023-05-02T13:21:34.791Z,17.10
2023-05-02T13:24:04.239Z,17.40
2023-05-02T13:26:32.533Z,17.20
2023-05-02T13:29:00.668Z,16.80
2023-05-02T13:31:29.162Z,16.40
2023-05-02T13:33:57.365Z,16.00
2023-05-02T13:36:25.566Z,16.10
2023-05-02T13:38:55.056Z,16.20
2023-05-02T13:41:24.569Z,16.10
2023-05-02T13:43:52.736Z,16.10
2023-05-02T13:46:20.888Z,16.00
2023-05-02T13:48:49.308Z,16.00
2023-05-02T13:51:17.763Z,16.00
2023-05-02T13:53:45.904Z,16.10
2023-05-02T13:56:16.079Z,16.10
2023-05-02T13:58:44.162Z,16.30
2023-05-02T14:01:12.468Z,16.50
2023-05-02T14:03:40.873Z,16.70
2023-05-02T14:06:09.014Z,17.00
2023-05-02T14:08:37.157Z,16.80
2023-05-02T14:11:07.161Z,16.60
2023-05-02T14:13:36.906Z,16.40
2023-05-02T14:16:05.603Z,16.20
2023-05-02T14:18:33.851Z,16.20
2023-05-02T14:21:03.213Z,16.30
2023-05-02T14:23:31.427Z,16.30
2023-05-02T14:25:59.545Z,16.30
2023-05-02T14:28:28.184Z,16.30
2023-05-02T14:30:57.662Z,16.30
2023-05-02T14:33:25.731Z,16.40
2023-05-02T14:35:53.921Z,16.20
2023-05-02T14:38:21.948Z,16.10
2023-05-02T14:40:49.983Z,16.10
2023-05-02T14:43:18.077Z,16.10
2023-05-02T14:45:46.058Z,16.00
2023-05-02T14:48:17.379Z,16.00
2023-05-02T14:50:45.581Z,15.90
2023-05-02T14:53:14.237Z,16.10
2023-05-02T14:55:42.531Z,16.10
2023-05-02T14:58:10.941Z,16.10
2023-05-02T15:00:39.565Z,15.90
2023-05-02T15:03:09.844Z,16.00
2023-05-02T15:05:40.037Z,16.10
2023-05-02T15:08:10.259Z,15.90
2023-05-02T15:10:38.623Z,15.80
2023-05-02T15:13:07.688Z,15.60
2023-05-02T15:15:37.242Z,15.60
2023-05-02T15:18:05.805Z,15.60
2023-05-02T15:20:34.048Z,15.50
2023-05-02T15:23:04.042Z,15.40
2023-05-02T15:25:32.371Z,15.50
2023-05-02T15:28:02.331Z,15.50
2023-05-02T15:30:30.659Z,15.50
2023-05-02T15:32:58.723Z,15.40
2023-05-02T15:35:26.801Z,15.40
2023-05-02T15:37:54.928Z,15.40
2023-05-02T15:40:26.313Z,15.30
2023-05-02T15:42:54.488Z,15.40
2023-05-02T15:45:22.550Z,15.40
2023-05-02T15:47:51.143Z,15.30
2023-05-02T15:50:19.354Z,15.30
2023-05-02T15:52:47.714Z,15.30
2023-05-02T15:55:16.853Z,15.40
2023-05-02T15:57:47.165Z,15.30
2023-05-02T16:00:17.089Z,15.20
2023-05-02T16:02:45.306Z,15.10
2023-05-02T16:05:13.673Z,15.00
2023-05-02T16:07:41.730Z,15.10
2023-05-02T16:10:11.154Z,15.10
2023-05-02T16:12:39.320Z,15.00
2023-05-02T16:15:10.159Z,15.00
2023-05-02T16:17:38.217Z,15.00
2023-05-02T16:20:07.227Z,15.10
2023-05-02T16:22:35.515Z,14.90
2023-05-02T16:25:03.772Z,14.90
2023-05-02T16:27:31.949Z,14.80
2023-05-02T16:30:00.564Z,14.80
2023-05-02T16:32:30.510Z,14.80
2023-05-02T16:34:58.753Z,14.80
2023-05-02T16:37:26.988Z,14.90
2023-05-02T16:39:55.221Z,14.80
2023-05-02T16:42:23.585Z,14.90
2023-05-02T16:44:51.807Z,14.90
2023-05-02T16:47:20.028Z,14.70
2023-05-02T16:49:54.362Z,14.60
2023-05-02T16:52:22.530Z,14.70
2023-05-02T16:54:50.956Z,14.80
2023-05-02T16:57:19.782Z,14.70
2023-05-02T16:59:48.790Z,14.60
2023-05-02T17:02:17.468Z,14.70
2023-05-02T17:04:45.656Z,14.60
2023-05-02T17:07:15.051Z,14.70
2023-05-02T17:09:44.485Z,14.60
2023-05-02T17:12:14.635Z,14.70
2023-05-02T17:14:43.517Z,14.70
2023-05-02T17:17:11.758Z,14.60
2023-05-02T17:19:40.049Z,14.50
2023-05-02T17:22:08.501Z,14.40
2023-05-02T17:24:38.156Z,14.30
2023-05-02T17:27:06.556Z,14.30
2023-05-02T17:29:35.424Z,14.30
2023-05-02T17:32:03.835Z,14.30
2023-05-02T17:34:33.452Z,14.40
2023-05-02T17:37:01.566Z,14.20
2023-05-02T17:39:29.709Z,14.10
2023-05-02T17:41:59.211Z,14.10
2023-05-02T17:44:27.308Z,14.10
2023-05-02T17:46:55.343Z,14.10
2023-05-02T17:49:23.850Z,14.10
2023-05-02T17:51:51.871Z,14.00
2023-05-02T17:54:20.039Z,14.00
2023-05-02T17:56:48.369Z,14.00
2023-05-02T17:59:18.880Z,14.00
2023-05-02T18:01:46.983Z,13.90
2023-05-02T18:04:16.435Z,13.90
2023-05-02T18:06:55.583Z,13.80
2023-05-02T18:09:24.502Z,13.80
2023-05-02T18:11:53.497Z,13.70
2023-05-02T18:14:25.049Z,13.70
2023-05-02T18:16:53.105Z,13.70
2023-05-02T18:19:26.565Z,13.60
2023-05-02T18:21:54.807Z,13.60
2023-05-02T18:24:22.968Z,13.50
2023-05-02T18:26:52.973Z,13.40
2023-05-02T18:29:22.495Z,13.40
2023-05-02T18:31:53.899Z,13.30
2023-05-02T18:34:22.862Z,13.30
2023-05-02T18:36:51.200Z,13.20
2023-05-02T18:39:21.568Z,13.10
2023-05-02T18:41:49.685Z,13.10
2023-05-02T18:44:17.834Z,13.00
2023-05-02T18:46:47.748Z,13.00
2023-05-02T18:49:16.515Z,12.90
2023-05-02T18:51:44.673Z,12.80
2023-05-02T18:54:17.492Z,12.70
2023-05-02T18:56:46.353Z,12.60
2023-05-02T18:59:14.525Z,12.60
2023-05-02T19:01:42.759Z,12.50
2023-05-02T19:04:14.714Z,12.40
2023-05-02T19:06:43.130Z,12.30
2023-05-02T19:09:13.276Z,12.30
2023-05-02T19:11:42.516Z,12.20
2023-05-02T19:14:11.773Z,12.10
2023-05-02T19:16:41.126Z,12.10
2023-05-02T19:19:10.872Z,12.00
2023-05-02T19:21:39.093Z,11.90
2023-05-02T19:24:07.723Z,11.90
2023-05-02T19:26:35.870Z,11.80
2023-05-02T19:29:04.346Z,11.70
2023-05-02T19:31:32.442Z,11.60
2023-05-02T19:34:00.624Z,11.60
2023-05-02T19:36:31.176Z,11.50
2023-05-02T19:38:59.473Z,11.50
2023-05-02T19:41:27.743Z,11.40
2023-05-02T19:43:56.938Z,11.30
2023-05-02T19:46:25.348Z,11.30
2023-05-02T19:48:53.627Z,11.20
2023-05-02T19:51:25.680Z,11.20
2023-05-02T19:53:58.584Z,11.10
2023-05-02T19:56:27.395Z,11.10
2023-05-02T19:58:56.730Z,11.00
2023-05-02T20:01:26.193Z,10.90
2023-05-02T20:03:54.850Z,10.90
2023-05-02T20:06:23.060Z,10.80
2023-05-02T20:08:52.686Z,10.80
2023-05-02T20:11:22.354Z,10.70
2023-05-02T20:13:50.603Z,10.60
2023-05-02T20:16:19.191Z,10.60
2023-05-02T20:18:47.416Z,10.60
2023-05-02T20:21:16.419Z,10.50
2023-05-02T20:23:45.062Z,10.50
2023-05-02T20:26:14.146Z,10.40
2023-05-02T20:28:43.807Z,10.40
2023-05-02T20:31:12.122Z,10.30
2023-05-02T20:33:45.234Z,10.30
2023-05-02T20:36:15.811Z,10.20
2023-05-02T20:38:44.627Z,10.20
2023-05-02T20:41:13.949Z,10.10
2023-05-02T20:43:45.104Z,10.10
2023-05-02T20:46:16.306Z,10.00
2023-05-02T20:48:48.686Z,9.90
2023-05-02T20:51:17.138Z,9.90
2023-05-02T20:53:45.455Z,9.90
2023-05-02T20:56:13.586Z,9.80
2023-05-02T20:58:43.261Z,9.70
2023-05-02T21:01:12.187Z,9.70
2023-05-02T21:03:41.420Z,9.70
2023-05-02T21:06:09.677Z,9.70
2023-05-02T21:08:38.986Z,9.60
2023-05-02T21:11:14.513Z,9.60
2023-05-02T21:13:44.719Z,9.50
2023-05-02T21:16:17.339Z,9.50
2023-05-02T21:18:45.714Z,9.40
2023-05-02T21:21:14.016Z,9.40
2023-05-02T21:23:42.124Z,9.30
2023-05-02T21:26:10.315Z,9.30
2023-05-02T21:28:38.848Z,9.30
2023-05-02T21:31:09.008Z,9.20
2023-05-02T21:33:37.248Z,9.20
2023-05-02T21:36:05.890Z,9.10
2023-05-02T21:38:34.170Z,9.10
2023-05-02T21:41:03.168Z,9.10
2023-05-02T21:43:33.062Z,9.00
2023-05-02T21:46:01.313Z,9.00
2023-05-02T21:48:31.029Z,8.90
2023-05-02T21:50:59.030Z,8.90
2023-05-02T21:53:27.815Z,8.90
2023-05-02T21:55:56.615Z,8.80
2023-05-02T21:58:24.722Z,8.80
2023-05-02T22:00:52.932Z,8.80
2023-05-02T22:03:24.200Z,8.70
2023-05-02T22:05:54.618Z,8.70
2023-05-02T22:08:24.201Z,8.70
2023-05-02T22:10:53.051Z,8.60
2023-05-02T22:13:24.380Z,8.60
2023-05-02T22:15:52.710Z,8.60
2023-05-02T22:18:21.132Z,8.50
2023-05-02T22:20:49.614Z,8.50
2023-05-02T22:23:19.309Z,8.50
2023-05-02T22:25:47.577Z,8.50
2023-05-02T22:28:15.627Z,8.40
2023-05-02T22:30:43.876Z,8.40
2023-05-02T22:33:12.859Z,8.40
2023-05-02T22:35:41.120Z,8.30
2023-05-02T22:38:09.993Z,8.30
2023-05-02T22:40:39.472Z,8.30
2023-05-02T22:43:08.187Z,8.30
2023-05-02T22:45:37.158Z,8.20
2023-05-02T22:48:06.477Z,8.20
2023-05-02T22:50:35.249Z,8.20
2023-05-02T22:53:04.034Z,8.10
2023-05-02T22:55:32.412Z,8.10
2023-05-02T22:58:01.983Z,8.10
2023-05-02T23:00:30.365Z,8.10
2023-05-02T23:02:58.627Z,8.00
2023-05-02T23:05:26.727Z,8.00
2023-05-02T23:07:55.465Z,8.00
2023-05-02T23:10:23.561Z,8.00
2023-05-02T23:12:51.727Z,7.90
2023-05-02T23:15:21.355Z,8.00
2023-05-02T23:17:49.624Z,7.90
2023-05-02T23:20:20.386Z,7.90
2023-05-02T23:22:48.371Z,7.90
2023-05-02T23:25:20.160Z,7.90
2023-05-02T23:27:48.835Z,7.80
2023-05-02T23:30:16.856Z,7.80
2023-05-02T23:32:46.997Z,7.80
2023-05-02T23:35:15.681Z,7.70
2023-05-02T23:37:45.591Z,7.70
2023-05-02T23:40:14.210Z,7.70
2023-05-02T23:42:42.646Z,7.70
2023-05-02T23:45:12.041Z,7.60
2023-05-02T23:47:40.212Z,7.60
2023-05-02T23:50:10.790Z,7.50
2023-05-02T23:52:38.980Z,7.60
2023-05-02T23:55:10.831Z,7.50
2023-05-02T23:57:39.167Z,7.50
